sensor_id;sensor_type;location;lat;lon;timestamp;noise_LAeq;noise_LA_min;noise_LA_max;noise_LA01;noise_LA95
45478;Laerm;31227;47.986;11.868;2023-02-03T00:03:53;37.34;30.89;44.35;;
45478;Laerm;31227;47.986;11.868;2023-02-03T00:15:40;38.39;31.68;55.69;;
45478;Laerm;31227;47.986;11.868;2023-02-03T00:18:06;37.14;31.68;42.98;;
45478;Laerm;31227;47.986;11.868;2023-02-03T00:20:42;38.35;30.89;58.99;;
45478;Laerm;31227;47.986;11.868;2023-02-03T00:23:08;38.78;31.68;59.15;;
45478;Laerm;31227;47.986;11.868;2023-02-03T00:25:33;37.76;29.92;47.70;;
45478;Laerm;31227;47.986;11.868;2023-02-03T00:27:59;38.62;32.58;56.10;;
45478;Laerm;31227;47.986;11.868;2023-02-03T00:30:24;37.65;32.35;44.31;;
45478;Laerm;31227;47.986;11.868;2023-02-03T00:32:53;37.18;31.68;42.98;;
45478;Laerm;31227;47.986;11.868;2023-02-03T00:35:26;38.18;30.89;54.60;;
45478;Laerm;31227;47.986;11.868;2023-02-03T00:38:20;36.99;30.89;40.23;;
45478;Laerm;31227;47.986;11.868;2023-02-03T00:40:53;37.41;30.89;46.50;;
45478;Laerm;31227;47.986;11.868;2023-02-03T00:43:21;37.02;30.89;43.05;;
45478;Laerm;31227;47.986;11.868;2023-02-03T00:45:52;37.28;31.68;43.49;;
45478;Laerm;31227;47.986;11.868;2023-02-03T00:51:33;38.70;30.89;52.48;;
45478;Laerm;31227;47.986;11.868;2023-02-03T00:54:10;37.16;31.33;44.39;;
45478;Laerm;31227;47.986;11.868;2023-02-03T00:56:40;37.29;28.67;44.07;;
45478;Laerm;31227;47.986;11.868;2023-02-03T00:59:16;37.03;30.89;43.29;;
45478;Laerm;31227;47.986;11.868;2023-02-03T01:02:04;36.95;30.89;39.81;;
45478;Laerm;31227;47.986;11.868;2023-02-03T01:04:49;37.06;30.89;43.29;;
45478;Laerm;31227;47.986;11.868;2023-02-03T01:07:14;37.78;30.89;52.46;;
45478;Laerm;31227;47.986;11.868;2023-02-03T01:09:40;39.63;31.68;56.60;;
45478;Laerm;31227;47.986;11.868;2023-02-03T01:12:05;37.57;31.68;43.77;;
45478;Laerm;31227;47.986;11.868;2023-02-03T01:14:31;38.95;31.68;54.71;;
45478;Laerm;31227;47.986;11.868;2023-02-03T01:16:56;38.07;31.68;57.73;;
45478;Laerm;31227;47.986;11.868;2023-02-03T01:19:22;37.41;31.68;49.53;;
45478;Laerm;31227;47.986;11.868;2023-02-03T01:21:47;37.21;30.89;41.96;;
45478;Laerm;31227;47.986;11.868;2023-02-03T01:24:12;37.28;30.89;44.58;;
45478;Laerm;31227;47.986;11.868;2023-02-03T01:26:39;37.34;29.92;43.86;;
45478;Laerm;31227;47.986;11.868;2023-02-03T01:29:05;37.16;30.89;45.11;;
45478;Laerm;31227;47.986;11.868;2023-02-03T01:31:31;37.03;31.68;40.03;;
45478;Laerm;31227;47.986;11.868;2023-02-03T01:33:58;37.14;31.68;43.58;;
45478;Laerm;31227;47.986;11.868;2023-02-03T01:36:24;37.32;32.00;50.00;;
45478;Laerm;31227;47.986;11.868;2023-02-03T01:38:50;37.69;31.68;46.78;;
45478;Laerm;31227;47.986;11.868;2023-02-03T01:41:17;37.06;30.89;42.22;;
45478;Laerm;31227;47.986;11.868;2023-02-03T01:43:43;37.47;32.35;46.62;;
45478;Laerm;31227;47.986;11.868;2023-02-03T01:46:16;37.05;30.89;42.16;;
45478;Laerm;31227;47.986;11.868;2023-02-03T01:48:42;38.41;30.89;50.17;;
45478;Laerm;31227;47.986;11.868;2023-02-03T01:51:08;37.48;31.68;45.43;;
45478;Laerm;31227;47.986;11.868;2023-02-03T01:53:33;37.71;31.68;45.86;;
45478;Laerm;31227;47.986;11.868;2023-02-03T01:55:58;37.21;28.67;47.06;;
45478;Laerm;31227;47.986;11.868;2023-02-03T01:58:28;38.00;31.68;47.88;;
45478;Laerm;31227;47.986;11.868;2023-02-03T02:00:55;37.86;29.92;46.32;;
45478;Laerm;31227;47.986;11.868;2023-02-03T02:03:23;39.01;30.89;55.42;;
45478;Laerm;31227;47.986;11.868;2023-02-03T02:05:53;38.68;32.58;58.37;;
45478;Laerm;31227;47.986;11.868;2023-02-03T02:08:20;37.47;30.89;47.61;;
45478;Laerm;31227;47.986;11.868;2023-02-03T02:10:47;37.22;31.68;50.90;;
45478;Laerm;31227;47.986;11.868;2023-02-03T02:13:12;37.64;31.68;46.38;;
45478;Laerm;31227;47.986;11.868;2023-02-03T02:23:58;37.88;32.35;46.23;;
45478;Laerm;31227;47.986;11.868;2023-02-03T02:26:37;38.50;32.93;57.63;;
45478;Laerm;31227;47.986;11.868;2023-02-03T02:42:37;38.16;30.89;51.66;;
45478;Laerm;31227;47.986;11.868;2023-02-03T02:45:07;38.23;28.67;52.28;;
45478;Laerm;31227;47.986;11.868;2023-02-03T02:47:33;38.63;31.68;62.71;;
45478;Laerm;31227;47.986;11.868;2023-02-03T02:50:00;37.26;31.68;45.48;;
45478;Laerm;31227;47.986;11.868;2023-02-03T02:52:29;37.58;31.68;43.97;;
45478;Laerm;31227;47.986;11.868;2023-02-03T02:54:56;38.70;30.89;57.97;;
45478;Laerm;31227;47.986;11.868;2023-02-03T02:57:24;38.05;31.68;46.10;;
45478;Laerm;31227;47.986;11.868;2023-02-03T02:59:50;38.47;29.92;52.09;;
45478;Laerm;31227;47.986;11.868;2023-02-03T03:02:17;38.53;32.35;48.64;;
45478;Laerm;31227;47.986;11.868;2023-02-03T03:04:43;37.55;31.68;45.75;;
45478;Laerm;31227;47.986;11.868;2023-02-03T03:12:58;38.17;32.35;55.46;;
45478;Laerm;31227;47.986;11.868;2023-02-03T03:15:53;37.56;32.00;47.26;;
45478;Laerm;31227;47.986;11.868;2023-02-03T03:21:55;38.39;31.68;61.19;;
45478;Laerm;31227;47.986;11.868;2023-02-03T03:24:27;37.49;32.00;46.02;;
45478;Laerm;31227;47.986;11.868;2023-02-03T03:30:28;37.31;29.92;44.51;;
45478;Laerm;31227;47.986;11.868;2023-02-03T03:43:46;38.14;31.68;47.91;;
45478;Laerm;31227;47.986;11.868;2023-02-03T03:49:20;38.87;31.33;50.66;;
45478;Laerm;31227;47.986;11.868;2023-02-03T03:51:57;38.29;30.89;46.20;;
45478;Laerm;31227;47.986;11.868;2023-02-03T03:54:27;38.26;31.68;46.76;;
45478;Laerm;31227;47.986;11.868;2023-02-03T03:59:50;38.10;31.68;46.07;;
45478;Laerm;31227;47.986;11.868;2023-02-03T04:02:16;37.86;31.68;46.59;;
45478;Laerm;31227;47.986;11.868;2023-02-03T04:07:24;38.57;30.89;60.95;;
45478;Laerm;31227;47.986;11.868;2023-02-03T04:10:01;37.88;28.67;44.43;;
45478;Laerm;31227;47.986;11.868;2023-02-03T04:12:28;39.01;26.91;49.95;;
45478;Laerm;31227;47.986;11.868;2023-02-03T04:14:53;38.53;30.89;47.28;;
45478;Laerm;31227;47.986;11.868;2023-02-03T04:17:18;37.68;29.92;44.47;;
45478;Laerm;31227;47.986;11.868;2023-02-03T04:19:44;38.71;32.35;54.50;;
45478;Laerm;31227;47.986;11.868;2023-02-03T04:22:09;40.45;32.35;50.77;;
45478;Laerm;31227;47.986;11.868;2023-02-03T04:24:34;39.62;32.35;49.92;;
45478;Laerm;31227;47.986;11.868;2023-02-03T04:26:59;39.66;32.35;54.69;;
45478;Laerm;31227;47.986;11.868;2023-02-03T04:29:25;39.35;29.92;51.11;;
45478;Laerm;31227;47.986;11.868;2023-02-03T04:31:50;39.06;32.35;56.13;;
45478;Laerm;31227;47.986;11.868;2023-02-03T04:34:15;38.78;32.93;45.63;;
45478;Laerm;31227;47.986;11.868;2023-02-03T04:36:40;40.82;33.90;53.30;;
45478;Laerm;31227;47.986;11.868;2023-02-03T04:39:06;40.51;33.44;52.49;;
45478;Laerm;31227;47.986;11.868;2023-02-03T04:41:31;38.86;32.93;51.71;;
45478;Laerm;31227;47.986;11.868;2023-02-03T04:43:56;38.42;31.68;44.76;;
45478;Laerm;31227;47.986;11.868;2023-02-03T04:46:21;39.73;32.35;46.05;;
45478;Laerm;31227;47.986;11.868;2023-02-03T04:48:47;40.98;33.90;62.21;;
45478;Laerm;31227;47.986;11.868;2023-02-03T04:51:12;39.21;32.93;53.49;;
45478;Laerm;31227;47.986;11.868;2023-02-03T04:53:37;39.07;32.93;47.16;;
45478;Laerm;31227;47.986;11.868;2023-02-03T04:56:13;38.68;31.68;49.12;;
45478;Laerm;31227;47.986;11.868;2023-02-03T04:58:40;41.10;32.35;54.88;;
45478;Laerm;31227;47.986;11.868;2023-02-03T05:01:07;40.30;32.35;52.21;;
45478;Laerm;31227;47.986;11.868;2023-02-03T05:03:33;41.39;33.44;55.96;;
45478;Laerm;31227;47.986;11.868;2023-02-03T05:05:59;39.93;31.68;50.46;;
45478;Laerm;31227;47.986;11.868;2023-02-03T05:08:24;42.41;32.93;63.10;;
45478;Laerm;31227;47.986;11.868;2023-02-03T05:10:49;39.90;32.93;48.36;;
45478;Laerm;31227;47.986;11.868;2023-02-03T05:13:14;40.10;33.09;52.96;;
45478;Laerm;31227;47.986;11.868;2023-02-03T05:15:40;41.62;34.31;60.03;;
45478;Laerm;31227;47.986;11.868;2023-02-03T05:18:05;42.02;32.93;57.45;;
45478;Laerm;31227;47.986;11.868;2023-02-03T05:20:30;40.61;33.44;50.41;;
45478;Laerm;31227;47.986;11.868;2023-02-03T05:22:56;40.38;32.93;48.81;;
45478;Laerm;31227;47.986;11.868;2023-02-03T05:25:22;40.84;32.93;53.61;;
45478;Laerm;31227;47.986;11.868;2023-02-03T05:27:47;40.14;33.44;47.44;;
45478;Laerm;31227;47.986;11.868;2023-02-03T05:30:12;40.65;33.90;60.02;;
45478;Laerm;31227;47.986;11.868;2023-02-03T05:32:37;41.17;33.90;51.79;;
45478;Laerm;31227;47.986;11.868;2023-02-03T05:35:02;40.12;33.90;54.50;;
45478;Laerm;31227;47.986;11.868;2023-02-03T05:37:28;41.20;34.31;48.76;;
45478;Laerm;31227;47.986;11.868;2023-02-03T05:39:53;41.12;33.90;51.72;;
45478;Laerm;31227;47.986;11.868;2023-02-03T05:42:38;40.98;34.69;51.69;;
45478;Laerm;31227;47.986;11.868;2023-02-03T05:45:03;41.85;32.93;52.83;;
45478;Laerm;31227;47.986;11.868;2023-02-03T05:47:29;40.97;33.90;51.38;;
45478;Laerm;31227;47.986;11.868;2023-02-03T05:49:54;40.89;32.93;56.37;;
45478;Laerm;31227;47.986;11.868;2023-02-03T05:52:19;40.83;33.44;52.79;;
45478;Laerm;31227;47.986;11.868;2023-02-03T05:54:45;41.67;32.35;58.22;;
45478;Laerm;31227;47.986;11.868;2023-02-03T05:57:10;43.99;33.90;67.31;;
45478;Laerm;31227;47.986;11.868;2023-02-03T05:59:36;41.84;32.93;61.12;;
45478;Laerm;31227;47.986;11.868;2023-02-03T06:02:01;40.60;33.44;49.44;;
45478;Laerm;31227;47.986;11.868;2023-02-03T06:04:26;40.67;33.90;49.15;;
45478;Laerm;31227;47.986;11.868;2023-02-03T06:06:51;41.63;34.31;56.69;;
45478;Laerm;31227;47.986;11.868;2023-02-03T06:09:16;40.88;34.69;52.39;;
45478;Laerm;31227;47.986;11.868;2023-02-03T06:11:42;42.48;33.90;60.91;;
45478;Laerm;31227;47.986;11.868;2023-02-03T06:14:07;43.07;34.69;63.77;;
45478;Laerm;31227;47.986;11.868;2023-02-03T06:16:32;42.27;32.35;64.06;;
45478;Laerm;31227;47.986;11.868;2023-02-03T06:18:57;40.95;32.93;59.19;;
45478;Laerm;31227;47.986;11.868;2023-02-03T06:21:23;41.12;33.90;52.98;;
45478;Laerm;31227;47.986;11.868;2023-02-03T06:23:48;41.36;35.36;49.67;;
45478;Laerm;31227;47.986;11.868;2023-02-03T06:26:14;41.67;33.90;52.66;;
45478;Laerm;31227;47.986;11.868;2023-02-03T06:28:39;42.48;34.69;53.91;;
45478;Laerm;31227;47.986;11.868;2023-02-03T06:31:04;41.23;32.93;52.59;;
45478;Laerm;31227;47.986;11.868;2023-02-03T06:33:30;41.86;33.90;60.93;;
45478;Laerm;31227;47.986;11.868;2023-02-03T06:35:55;41.71;33.90;58.44;;
45478;Laerm;31227;47.986;11.868;2023-02-03T06:38:20;41.85;34.69;56.99;;
45478;Laerm;31227;47.986;11.868;2023-02-03T06:40:46;41.95;34.31;61.21;;
45478;Laerm;31227;47.986;11.868;2023-02-03T06:43:12;41.90;35.01;56.77;;
45478;Laerm;31227;47.986;11.868;2023-02-03T06:45:37;42.02;34.31;59.70;;
45478;Laerm;31227;47.986;11.868;2023-02-03T06:48:02;41.74;34.31;55.17;;
45478;Laerm;31227;47.986;11.868;2023-02-03T06:50:27;44.06;36.45;64.40;;
45478;Laerm;31227;47.986;11.868;2023-02-03T06:52:52;40.91;34.69;54.08;;
45478;Laerm;31227;47.986;11.868;2023-02-03T06:55:18;41.18;35.36;54.09;;
45478;Laerm;31227;47.986;11.868;2023-02-03T06:57:44;42.60;34.31;65.47;;
45478;Laerm;31227;47.986;11.868;2023-02-03T07:00:12;41.75;35.36;54.89;;
45478;Laerm;31227;47.986;11.868;2023-02-03T07:02:38;41.83;34.69;60.17;;
45478;Laerm;31227;47.986;11.868;2023-02-03T07:05:04;42.37;34.69;57.24;;
45478;Laerm;31227;47.986;11.868;2023-02-03T07:07:29;46.10;34.69;65.30;;
45478;Laerm;31227;47.986;11.868;2023-02-03T07:09:56;43.77;35.04;68.77;;
45478;Laerm;31227;47.986;11.868;2023-02-03T07:12:21;40.98;34.31;47.68;;
45478;Laerm;31227;47.986;11.868;2023-02-03T07:14:46;44.03;35.36;66.64;;
45478;Laerm;31227;47.986;11.868;2023-02-03T07:17:12;42.41;35.66;61.57;;
45478;Laerm;31227;47.986;11.868;2023-02-03T07:19:37;45.33;35.36;69.36;;
45478;Laerm;31227;47.986;11.868;2023-02-03T07:22:02;42.81;35.36;60.24;;
45478;Laerm;31227;47.986;11.868;2023-02-03T07:24:27;42.70;35.66;59.45;;
45478;Laerm;31227;47.986;11.868;2023-02-03T07:26:53;42.25;32.93;60.04;;
45478;Laerm;31227;47.986;11.868;2023-02-03T07:29:18;41.39;34.31;50.98;;
45478;Laerm;31227;47.986;11.868;2023-02-03T07:31:43;45.18;33.90;70.11;;
45478;Laerm;31227;47.986;11.868;2023-02-03T07:34:08;44.74;36.20;65.95;;
45478;Laerm;31227;47.986;11.868;2023-02-03T07:36:34;41.70;35.66;60.33;;
45478;Laerm;31227;47.986;11.868;2023-02-03T07:38:59;41.29;35.59;50.71;;
45478;Laerm;31227;47.986;11.868;2023-02-03T07:41:24;41.74;34.31;66.57;;
45478;Laerm;31227;47.986;11.868;2023-02-03T07:43:50;40.68;34.69;56.23;;
45478;Laerm;31227;47.986;11.868;2023-02-03T07:46:15;42.84;35.59;60.38;;
45478;Laerm;31227;47.986;11.868;2023-02-03T07:48:40;43.27;35.04;61.24;;
45478;Laerm;31227;47.986;11.868;2023-02-03T07:51:05;44.16;33.90;67.39;;
45478;Laerm;31227;47.986;11.868;2023-02-03T07:53:31;44.81;32.93;73.84;;
45478;Laerm;31227;47.986;11.868;2023-02-03T07:55:59;43.68;35.66;61.26;;
45478;Laerm;31227;47.986;11.868;2023-02-03T07:58:25;42.73;35.36;60.22;;
45478;Laerm;31227;47.986;11.868;2023-02-03T08:00:54;50.51;35.04;77.64;;
45478;Laerm;31227;47.986;11.868;2023-02-03T08:03:25;41.70;35.04;59.11;;
45478;Laerm;31227;47.986;11.868;2023-02-03T08:05:53;45.85;34.31;65.98;;
45478;Laerm;31227;47.986;11.868;2023-02-03T08:08:18;47.18;40.33;66.93;;
45478;Laerm;31227;47.986;11.868;2023-02-03T08:10:43;41.81;35.04;56.78;;
45478;Laerm;31227;47.986;11.868;2023-02-03T08:13:11;41.88;35.31;61.22;;
45478;Laerm;31227;47.986;11.868;2023-02-03T08:15:39;42.24;33.90;57.94;;
45478;Laerm;31227;47.986;11.868;2023-02-03T08:18:04;41.34;34.69;59.46;;
45478;Laerm;31227;47.986;11.868;2023-02-03T08:20:30;41.13;35.36;57.99;;
45478;Laerm;31227;47.986;11.868;2023-02-03T08:22:55;41.01;34.69;53.15;;
45478;Laerm;31227;47.986;11.868;2023-02-03T08:25:20;41.42;33.44;60.26;;
45478;Laerm;31227;47.986;11.868;2023-02-03T08:27:46;40.42;33.44;54.35;;
45478;Laerm;31227;47.986;11.868;2023-02-03T08:30:12;46.97;35.36;72.28;;
45478;Laerm;31227;47.986;11.868;2023-02-03T08:32:37;43.16;35.36;61.92;;
45478;Laerm;31227;47.986;11.868;2023-02-03T08:35:03;43.98;35.94;67.99;;
45478;Laerm;31227;47.986;11.868;2023-02-03T08:37:28;43.91;34.31;66.26;;
45478;Laerm;31227;47.986;11.868;2023-02-03T08:39:56;45.55;36.45;65.97;;
45478;Laerm;31227;47.986;11.868;2023-02-03T08:42:21;40.29;33.90;55.67;;
45478;Laerm;31227;47.986;11.868;2023-02-03T08:44:47;43.12;35.66;63.09;;
45478;Laerm;31227;47.986;11.868;2023-02-03T08:47:13;45.33;35.04;69.29;;
45478;Laerm;31227;47.986;11.868;2023-02-03T08:49:38;42.65;35.66;63.47;;
45478;Laerm;31227;47.986;11.868;2023-02-03T08:52:07;43.43;35.04;63.07;;
45478;Laerm;31227;47.986;11.868;2023-02-03T08:54:34;44.44;34.31;74.44;;
45478;Laerm;31227;47.986;11.868;2023-02-03T08:56:59;44.15;34.31;62.32;;
45478;Laerm;31227;47.986;11.868;2023-02-03T08:59:24;47.84;35.66;71.22;;
45478;Laerm;31227;47.986;11.868;2023-02-03T09:01:50;41.89;35.04;57.23;;
45478;Laerm;31227;47.986;11.868;2023-02-03T09:04:16;41.91;35.04;55.64;;
45478;Laerm;31227;47.986;11.868;2023-02-03T09:06:43;43.57;35.66;63.53;;
45478;Laerm;31227;47.986;11.868;2023-02-03T09:09:08;44.68;36.45;66.60;;
45478;Laerm;31227;47.986;11.868;2023-02-03T09:11:34;45.93;35.36;67.35;;
45478;Laerm;31227;47.986;11.868;2023-02-03T09:13:59;43.17;34.69;55.70;;
45478;Laerm;31227;47.986;11.868;2023-02-03T09:16:25;44.98;35.66;65.54;;
45478;Laerm;31227;47.986;11.868;2023-02-03T09:18:50;43.23;35.04;58.85;;
45478;Laerm;31227;47.986;11.868;2023-02-03T09:21:16;49.23;35.66;72.00;;
45478;Laerm;31227;47.986;11.868;2023-02-03T09:23:41;42.28;35.04;55.94;;
45478;Laerm;31227;47.986;11.868;2023-02-03T09:26:08;41.07;34.31;58.05;;
45478;Laerm;31227;47.986;11.868;2023-02-03T09:28:34;42.77;34.31;60.29;;
45478;Laerm;31227;47.986;11.868;2023-02-03T09:31:00;45.33;35.59;68.26;;
45478;Laerm;31227;47.986;11.868;2023-02-03T09:33:25;45.77;34.69;67.94;;
45478;Laerm;31227;47.986;11.868;2023-02-03T09:35:51;42.01;35.31;58.93;;
45478;Laerm;31227;47.986;11.868;2023-02-03T09:38:17;42.36;33.90;66.17;;
45478;Laerm;31227;47.986;11.868;2023-02-03T09:40:42;42.76;33.90;51.22;;
45478;Laerm;31227;47.986;11.868;2023-02-03T09:43:10;43.42;35.36;59.55;;
45478;Laerm;31227;47.986;11.868;2023-02-03T09:45:37;44.47;35.66;65.48;;
45478;Laerm;31227;47.986;11.868;2023-02-03T09:48:04;42.97;34.69;58.44;;
45478;Laerm;31227;47.986;11.868;2023-02-03T09:50:33;40.96;35.36;48.46;;
45478;Laerm;31227;47.986;11.868;2023-02-03T09:53:02;44.93;35.36;65.25;;
45478;Laerm;31227;47.986;11.868;2023-02-03T09:55:34;43.25;36.20;60.17;;
45478;Laerm;31227;47.986;11.868;2023-02-03T09:58:14;41.72;35.36;62.40;;
45478;Laerm;31227;47.986;11.868;2023-02-03T10:00:43;41.46;35.59;57.35;;
45478;Laerm;31227;47.986;11.868;2023-02-03T10:03:24;42.36;35.01;65.70;;
45478;Laerm;31227;47.986;11.868;2023-02-03T10:08:42;42.14;35.04;57.54;;
45478;Laerm;31227;47.986;11.868;2023-02-03T10:13:48;44.47;35.04;67.51;;
45478;Laerm;31227;47.986;11.868;2023-02-03T10:18:46;42.34;35.36;54.39;;
45478;Laerm;31227;47.986;11.868;2023-02-03T10:23:43;42.92;36.20;56.41;;
45478;Laerm;31227;47.986;11.868;2023-02-03T10:26:12;43.60;35.36;63.66;;
45478;Laerm;31227;47.986;11.868;2023-02-03T10:29:02;42.83;34.31;50.58;;
45478;Laerm;31227;47.986;11.868;2023-02-03T10:31:31;42.39;35.94;56.87;;
45478;Laerm;31227;47.986;11.868;2023-02-03T10:34:12;43.41;35.36;64.22;;
45478;Laerm;31227;47.986;11.868;2023-02-03T10:39:24;44.74;35.66;66.36;;
45478;Laerm;31227;47.986;11.868;2023-02-03T10:41:52;44.86;35.04;65.34;;
45478;Laerm;31227;47.986;11.868;2023-02-03T10:44:17;43.61;34.69;65.62;;
45478;Laerm;31227;47.986;11.868;2023-02-03T10:46:43;42.51;35.04;66.38;;
45478;Laerm;31227;47.986;11.868;2023-02-03T10:49:09;41.84;35.04;63.37;;
45478;Laerm;31227;47.986;11.868;2023-02-03T10:54:00;42.02;34.31;61.16;;
45478;Laerm;31227;47.986;11.868;2023-02-03T10:56:28;42.00;34.69;62.62;;
45478;Laerm;31227;47.986;11.868;2023-02-03T10:58:55;42.63;35.86;60.49;;
45478;Laerm;31227;47.986;11.868;2023-02-03T11:01:22;47.37;33.90;67.03;;
45478;Laerm;31227;47.986;11.868;2023-02-03T11:04:32;44.35;37.87;53.90;;
45478;Laerm;31227;47.986;11.868;2023-02-03T11:06:38;43.87;35.66;65.62;;
45478;Laerm;31227;47.986;11.868;2023-02-03T11:09:22;41.85;35.94;58.08;;
45478;Laerm;31227;47.986;11.868;2023-02-03T11:12:01;42.56;35.36;61.72;;
45478;Laerm;31227;47.986;11.868;2023-02-03T11:14:34;41.72;34.69;56.68;;
45478;Laerm;31227;47.986;11.868;2023-02-03T11:17:04;43.67;35.66;68.30;;
45478;Laerm;31227;47.986;11.868;2023-02-03T11:19:30;46.66;34.69;68.83;;
45478;Laerm;31227;47.986;11.868;2023-02-03T11:21:55;48.30;35.94;71.94;;
45478;Laerm;31227;47.986;11.868;2023-02-03T11:24:27;41.17;35.04;56.55;;
45478;Laerm;31227;47.986;11.868;2023-02-03T11:29:26;42.52;35.36;61.82;;
45478;Laerm;31227;47.986;11.868;2023-02-03T11:32:41;41.33;35.04;55.30;;
45478;Laerm;31227;47.986;11.868;2023-02-03T11:34:45;41.14;35.04;55.06;;
45478;Laerm;31227;47.986;11.868;2023-02-03T11:39:48;42.84;35.36;60.03;;
45478;Laerm;31227;47.986;11.868;2023-02-03T11:42:21;43.24;35.66;64.16;;
45478;Laerm;31227;47.986;11.868;2023-02-03T11:44:46;40.97;34.69;50.89;;
45478;Laerm;31227;47.986;11.868;2023-02-03T11:47:11;44.01;35.04;65.83;;
45478;Laerm;31227;47.986;11.868;2023-02-03T11:49:48;44.60;36.69;68.37;;
45478;Laerm;31227;47.986;11.868;2023-02-03T11:52:25;44.97;35.04;67.63;;
45478;Laerm;31227;47.986;11.868;2023-02-03T11:55:01;44.88;35.04;67.55;;
45478;Laerm;31227;47.986;11.868;2023-02-03T12:00:21;41.05;34.31;55.81;;
45478;Laerm;31227;47.986;11.868;2023-02-03T12:12:55;43.60;35.94;65.32;;
45478;Laerm;31227;47.986;11.868;2023-02-03T12:18:19;47.04;35.94;69.84;;
45478;Laerm;31227;47.986;11.868;2023-02-03T12:30:51;44.97;35.66;68.98;;
45478;Laerm;31227;47.986;11.868;2023-02-03T12:33:20;45.36;35.66;69.27;;
45478;Laerm;31227;47.986;11.868;2023-02-03T12:35:48;53.74;36.91;78.79;;
45478;Laerm;31227;47.986;11.868;2023-02-03T12:38:18;48.52;35.66;74.18;;
45478;Laerm;31227;47.986;11.868;2023-02-03T12:40:48;44.76;35.66;64.83;;
45478;Laerm;31227;47.986;11.868;2023-02-03T12:43:18;46.44;35.36;69.15;;
45478;Laerm;31227;47.986;11.868;2023-02-03T12:45:50;42.31;35.66;62.14;;
45478;Laerm;31227;47.986;11.868;2023-02-03T12:48:19;41.67;35.04;60.13;;
45478;Laerm;31227;47.986;11.868;2023-02-03T12:50:50;44.03;35.36;68.74;;
45478;Laerm;31227;47.986;11.868;2023-02-03T12:56:08;42.10;36.45;61.11;;
45478;Laerm;31227;47.986;11.868;2023-02-03T12:58:40;41.78;35.04;62.00;;
45478;Laerm;31227;47.986;11.868;2023-02-03T13:09:57;42.35;35.94;63.37;;
45478;Laerm;31227;47.986;11.868;2023-02-03T13:12:28;43.35;35.66;63.62;;
45478;Laerm;31227;47.986;11.868;2023-02-03T13:15:20;42.62;33.44;65.41;;
45478;Laerm;31227;47.986;11.868;2023-02-03T13:17:53;41.34;35.66;53.44;;
45478;Laerm;31227;47.986;11.868;2023-02-03T13:20:24;43.36;36.69;69.00;;
45478;Laerm;31227;47.986;11.868;2023-02-03T13:22:50;41.79;35.66;59.64;;
45478;Laerm;31227;47.986;11.868;2023-02-03T13:33:19;42.65;35.36;63.52;;
45478;Laerm;31227;47.986;11.868;2023-02-03T13:41:18;42.23;35.04;63.49;;
45478;Laerm;31227;47.986;11.868;2023-02-03T13:43:51;43.47;36.20;63.34;;
45478;Laerm;31227;47.986;11.868;2023-02-03T13:46:21;41.94;35.66;56.22;;
45478;Laerm;31227;47.986;11.868;2023-02-03T13:48:53;44.28;33.44;73.08;;
45478;Laerm;31227;47.986;11.868;2023-02-03T13:54:31;42.46;35.94;59.34;;
45478;Laerm;31227;47.986;11.868;2023-02-03T13:57:01;43.97;36.20;62.22;;
45478;Laerm;31227;47.986;11.868;2023-02-03T13:59:43;41.79;35.31;56.80;;
45478;Laerm;31227;47.986;11.868;2023-02-03T14:12:59;41.68;35.66;58.67;;
45478;Laerm;31227;47.986;11.868;2023-02-03T14:22:49;43.44;35.94;62.92;;
45478;Laerm;31227;47.986;11.868;2023-02-03T14:25:14;42.79;35.94;57.17;;
45478;Laerm;31227;47.986;11.868;2023-02-03T14:27:42;41.47;35.04;58.25;;
45478;Laerm;31227;47.986;11.868;2023-02-03T14:32:53;46.34;36.45;73.65;;
45478;Laerm;31227;47.986;11.868;2023-02-03T14:35:20;41.30;34.69;56.25;;
45478;Laerm;31227;47.986;11.868;2023-02-03T14:37:54;42.10;35.04;61.42;;
45478;Laerm;31227;47.986;11.868;2023-02-03T14:42:52;44.14;35.36;66.26;;
45478;Laerm;31227;47.986;11.868;2023-02-03T14:47:59;44.18;34.69;68.70;;
45478;Laerm;31227;47.986;11.868;2023-02-03T14:56:01;41.63;33.90;57.51;;
45478;Laerm;31227;47.986;11.868;2023-02-03T14:58:31;42.19;35.66;63.16;;
45478;Laerm;31227;47.986;11.868;2023-02-03T15:00:58;40.82;36.20;45.91;;
45478;Laerm;31227;47.986;11.868;2023-02-03T15:03:25;41.43;34.69;59.89;;
45478;Laerm;31227;47.986;11.868;2023-02-03T15:05:52;42.04;35.36;61.82;;
45478;Laerm;31227;47.986;11.868;2023-02-03T15:13:45;41.57;35.36;56.30;;
45478;Laerm;31227;47.986;11.868;2023-02-03T15:16:12;40.75;34.69;50.53;;
45478;Laerm;31227;47.986;11.868;2023-02-03T15:18:39;42.18;35.66;61.01;;
45478;Laerm;31227;47.986;11.868;2023-02-03T15:21:04;42.46;35.66;62.47;;
45478;Laerm;31227;47.986;11.868;2023-02-03T15:23:37;41.58;35.94;60.77;;
45478;Laerm;31227;47.986;11.868;2023-02-03T15:26:10;40.89;34.69;53.74;;
45478;Laerm;31227;47.986;11.868;2023-02-03T15:28:36;42.09;34.69;64.40;;
45478;Laerm;31227;47.986;11.868;2023-02-03T15:31:05;41.97;35.66;60.40;;
45478;Laerm;31227;47.986;11.868;2023-02-03T15:33:34;43.80;35.66;73.07;;
45478;Laerm;31227;47.986;11.868;2023-02-03T15:36:03;42.31;35.36;68.03;;
45478;Laerm;31227;47.986;11.868;2023-02-03T15:38:33;43.72;35.04;66.68;;
45478;Laerm;31227;47.986;11.868;2023-02-03T15:41:00;42.78;34.69;68.23;;
45478;Laerm;31227;47.986;11.868;2023-02-03T15:46:05;43.18;35.36;65.11;;
45478;Laerm;31227;47.986;11.868;2023-02-03T15:51:08;42.40;35.94;64.72;;
45478;Laerm;31227;47.986;11.868;2023-02-03T15:53:45;41.29;35.36;55.57;;
45478;Laerm;31227;47.986;11.868;2023-02-03T15:56:16;45.23;36.45;66.84;;
45478;Laerm;31227;47.986;11.868;2023-02-03T15:58:44;42.48;35.94;59.18;;
45478;Laerm;31227;47.986;11.868;2023-02-03T16:01:10;41.21;35.66;53.74;;
45478;Laerm;31227;47.986;11.868;2023-02-03T16:03:39;43.09;36.91;59.30;;
45478;Laerm;31227;47.986;11.868;2023-02-03T16:08:41;44.37;35.04;66.46;;
45478;Laerm;31227;47.986;11.868;2023-02-03T16:14:06;41.07;35.36;56.82;;
45478;Laerm;31227;47.986;11.868;2023-02-03T16:19:04;41.29;35.36;54.16;;
45478;Laerm;31227;47.986;11.868;2023-02-03T16:27:17;41.91;35.86;59.79;;
45478;Laerm;31227;47.986;11.868;2023-02-03T16:29:41;41.59;33.44;61.00;;
45478;Laerm;31227;47.986;11.868;2023-02-03T16:32:25;45.71;35.94;68.84;;
45478;Laerm;31227;47.986;11.868;2023-02-03T16:35:09;43.25;33.90;62.48;;
45478;Laerm;31227;47.986;11.868;2023-02-03T16:37:52;40.85;35.04;53.37;;
45478;Laerm;31227;47.986;11.868;2023-02-03T16:40:36;41.30;35.36;50.64;;
45478;Laerm;31227;47.986;11.868;2023-02-03T16:43:21;40.94;34.69;54.10;;
45478;Laerm;31227;47.986;11.868;2023-02-03T16:46:07;42.40;35.94;58.11;;
45478;Laerm;31227;47.986;11.868;2023-02-03T16:48:53;41.90;35.04;60.70;;
45478;Laerm;31227;47.986;11.868;2023-02-03T16:51:38;47.71;35.66;72.40;;
45478;Laerm;31227;47.986;11.868;2023-02-03T16:54:04;44.08;35.04;64.53;;
45478;Laerm;31227;47.986;11.868;2023-02-03T16:56:29;41.78;35.66;59.63;;
45478;Laerm;31227;47.986;11.868;2023-02-03T16:58:55;45.47;35.36;70.13;;